createdAt,value
2023-10-02T00:03:26.812Z,9.58
2023-10-02T00:07:31.016Z,9.75
2023-10-02T00:11:41.515Z,9.99
2023-10-02T00:15:44.298Z,9.66
2023-10-02T00:19:48.411Z,9.47
2023-10-02T00:24:01.759Z,9.52
2023-10-02T00:28:09.551Z,9.75
2023-10-02T00:32:13.120Z,9.77
2023-10-02T00:36:15.767Z,9.61
2023-10-02T00:40:22.425Z,9.67
2023-10-02T00:44:42.430Z,9.56
2023-10-02T00:48:45.286Z,9.55
2023-10-02T00:53:00.532Z,9.75
2023-10-02T00:57:18.096Z,9.54
2023-10-02T01:01:21.248Z,9.53
2023-10-02T01:05:31.413Z,9.45
2023-10-02T01:09:36.283Z,9.74
2023-10-02T01:13:40.568Z,9.71
2023-10-02T01:17:46.636Z,9.48
2023-10-02T01:21:49.870Z,9.72
2023-10-02T01:25:58.324Z,9.50
2023-10-02T01:30:16.081Z,9.38
2023-10-02T01:34:34.725Z,9.34
2023-10-02T01:38:39.118Z,9.13
2023-10-02T01:42:45.351Z,9.66
2023-10-02T01:46:51.821Z,9.56
2023-10-02T01:50:57.105Z,9.15
2023-10-02T01:55:01.444Z,9.23
2023-10-02T01:59:11.816Z,9.14
2023-10-02T02:03:19.437Z,9.45
2023-10-02T02:07:22.331Z,8.87
2023-10-02T02:11:25.764Z,9.13
2023-10-02T02:15:29.921Z,9.23
2023-10-02T02:19:32.659Z,8.99
2023-10-02T02:23:35.480Z,9.00
2023-10-02T02:27:38.242Z,8.92
2023-10-02T02:31:43.396Z,8.70
2023-10-02T02:35:46.553Z,8.74
2023-10-02T02:39:51.024Z,8.30
2023-10-02T02:43:54.236Z,8.87
2023-10-02T02:48:00.660Z,9.03
2023-10-02T02:52:03.456Z,8.92
2023-10-02T02:56:19.284Z,8.33
2023-10-02T03:00:32.987Z,8.83
2023-10-02T03:04:40.628Z,8.52
2023-10-02T03:08:45.368Z,8.49
2023-10-02T03:12:49.652Z,8.52
2023-10-02T03:16:53.012Z,8.47
2023-10-02T03:20:58.723Z,8.56
2023-10-02T03:25:21.449Z,8.57
2023-10-02T03:29:24.405Z,8.22
2023-10-02T03:33:32.641Z,8.54
2023-10-02T03:37:36.975Z,8.43
2023-10-02T03:41:50.197Z,8.20
2023-10-02T03:45:55.143Z,8.32
2023-10-02T03:50:02.435Z,8.24
2023-10-02T03:54:22.214Z,8.15
2023-10-02T03:58:37.035Z,8.32
2023-10-02T04:02:45.200Z,8.25
2023-10-02T04:06:48.800Z,8.13
2023-10-02T04:10:57.052Z,8.05
2023-10-02T04:15:05.419Z,8.11
2023-10-02T04:19:08.207Z,8.09
2023-10-02T04:23:22.235Z,8.06
2023-10-02T04:27:39.556Z,7.90
2023-10-02T04:31:45.466Z,7.75
2023-10-02T04:35:58.334Z,7.92
2023-10-02T04:40:17.945Z,7.93
2023-10-02T04:44:22.634Z,7.94
2023-10-02T04:48:28.504Z,7.57
2023-10-02T04:52:51.336Z,7.48
2023-10-02T04:57:12.835Z,7.67
2023-10-02T05:01:30.184Z,7.66
2023-10-02T05:05:37.891Z,7.59
2023-10-02T05:09:40.926Z,7.37
2023-10-02T05:14:01.451Z,7.43
2023-10-02T05:18:10.982Z,7.42
2023-10-02T05:22:17.324Z,7.64
2023-10-02T05:26:35.531Z,7.63
2023-10-02T05:30:45.035Z,7.04
2023-10-02T05:35:05.397Z,7.48
2023-10-02T05:39:29.290Z,7.71
2023-10-02T05:43:40.721Z,7.57
2023-10-02T05:47:43.685Z,7.54
2023-10-02T05:51:49.092Z,7.51
2023-10-02T05:56:06.289Z,7.49
2023-10-02T06:00:18.113Z,7.54
2023-10-02T06:04:24.530Z,7.57
2023-10-02T06:08:34.310Z,7.63
2023-10-02T06:12:37.645Z,7.80
2023-10-02T06:16:41.950Z,7.84
2023-10-02T06:20:59.663Z,7.81
2023-10-02T06:25:05.104Z,7.93
2023-10-02T06:29:17.872Z,7.94
2023-10-02T06:33:22.942Z,7.87
2023-10-02T06:37:31.249Z,8.31
2023-10-02T06:41:36.989Z,8.37
2023-10-02T06:45:53.580Z,8.57
2023-10-02T06:50:04.326Z,8.83
2023-10-02T06:54:08.433Z,8.88
2023-10-02T06:58:16.066Z,8.99
2023-10-02T07:02:20.044Z,9.18
2023-10-02T07:06:25.472Z,9.36
2023-10-02T07:10:30.535Z,9.65
2023-10-02T07:14:36.516Z,9.82
2023-10-02T07:18:46.747Z,10.21
2023-10-02T07:22:49.804Z,10.30
2023-10-02T07:26:53.061Z,10.66
2023-10-02T07:30:58.098Z,10.85
2023-10-02T07:35:11.213Z,11.16
2023-10-02T07:39:34.802Z,11.27
2023-10-02T07:43:37.532Z,11.56
2023-10-02T07:47:57.268Z,11.68
2023-10-02T07:52:00.015Z,12.14
2023-10-02T07:56:04.269Z,12.41
2023-10-02T08:00:28.612Z,12.77
2023-10-02T08:04:47.033Z,13.07
2023-10-02T08:09:10.337Z,13.19
2023-10-02T08:13:14.937Z,13.17
2023-10-02T08:17:24.471Z,13.16
2023-10-02T08:21:47.137Z,13.77
2023-10-02T08:26:19.179Z,14.15
2023-10-02T08:30:33.039Z,14.13
2023-10-02T08:34:37.380Z,14.29
2023-10-02T08:38:42.360Z,14.77
2023-10-02T08:42:48.121Z,14.89
2023-10-02T08:46:51.005Z,15.23
2023-10-02T08:50:58.484Z,15.58
2023-10-02T08:55:34.383Z,16.14
2023-10-02T08:59:42.151Z,16.10
2023-10-02T09:04:05.066Z,16.31
2023-10-02T09:08:08.764Z,17.04
2023-10-02T09:12:17.034Z,17.05
2023-10-02T09:16:20.059Z,17.65
2023-10-02T09:20:39.968Z,17.90
2023-10-02T09:24:56.758Z,18.25
2023-10-02T09:29:03.097Z,18.85
2023-10-02T09:33:19.515Z,19.72
2023-10-02T09:37:42.956Z,19.74
2023-10-02T09:42:07.262Z,19.97
2023-10-02T09:46:18.264Z,20.17
2023-10-02T09:50:29.740Z,19.96
2023-10-02T09:54:37.749Z,20.34
2023-10-02T09:58:50.321Z,20.95
2023-10-02T10:03:33.148Z,20.62
2023-10-02T10:08:19.649Z,21.18
2023-10-02T10:12:52.153Z,21.33
2023-10-02T10:16:55.397Z,21.33
2023-10-02T10:21:57.387Z,21.52
2023-10-02T10:26:09.138Z,21.37
2023-10-02T10:30:36.528Z,21.53
2023-10-02T10:35:13.398Z,21.86
2023-10-02T10:39:58.299Z,22.13
2023-10-02T10:44:07.820Z,22.07
2023-10-02T10:48:20.272Z,22.08
2023-10-02T10:52:35.891Z,22.20
2023-10-02T10:56:38.828Z,21.76
2023-10-02T11:00:50.683Z,22.21
2023-10-02T11:04:55.042Z,22.40
2023-10-02T11:09:13.344Z,22.00
2023-10-02T11:13:25.464Z,21.22
2023-10-02T11:17:35.057Z,22.82
2023-10-02T11:21:46.261Z,22.18
2023-10-02T11:25:53.155Z,22.57
2023-10-02T11:30:04.359Z,22.90
2023-10-02T11:38:19.476Z,22.40
2023-10-02T11:42:22.627Z,22.32
2023-10-02T11:46:27.187Z,22.43
2023-10-02T11:50:31.463Z,22.80
2023-10-02T11:54:37.916Z,23.59
2023-10-02T11:58:40.872Z,22.65
2023-10-02T12:02:46.480Z,23.06
2023-10-02T12:06:54.378Z,23.28
2023-10-02T12:10:58.295Z,23.14
2023-10-02T12:15:01.421Z,22.80
2023-10-02T12:19:04.699Z,22.52
2023-10-02T12:23:09.021Z,24.02
2023-10-02T12:27:14.050Z,22.91
2023-10-02T12:31:19.035Z,22.81
2023-10-02T12:35:22.199Z,23.25
2023-10-02T12:39:30.254Z,23.32
2023-10-02T12:43:33.380Z,23.53
2023-10-02T12:47:38.339Z,24.20
2023-10-02T12:51:42.789Z,23.67
2023-10-02T12:55:48.778Z,24.63
2023-10-02T12:59:51.776Z,24.41
2023-10-02T13:03:55.702Z,23.94
2023-10-02T13:07:59.478Z,23.89
2023-10-02T13:12:03.750Z,24.68
2023-10-02T13:16:07.136Z,24.04
2023-10-02T13:20:12.129Z,23.71
2023-10-02T13:24:17.222Z,23.36
2023-10-02T13:28:21.773Z,24.49
2023-10-02T13:32:24.754Z,24.17
2023-10-02T13:36:28.957Z,24.02
2023-10-02T13:40:33.558Z,24.56
2023-10-02T13:44:37.756Z,24.60
2023-10-02T13:48:40.849Z,24.49
2023-10-02T13:52:44.209Z,24.50
2023-10-02T13:56:47.480Z,23.72
2023-10-02T14:00:52.114Z,23.63
2023-10-02T14:04:54.917Z,24.13
2023-10-02T14:08:57.955Z,23.98
2023-10-02T14:13:02.912Z,23.79
2023-10-02T14:17:08.685Z,24.11
2023-10-02T14:21:11.724Z,23.61
2023-10-02T14:25:15.709Z,23.63
2023-10-02T14:29:18.523Z,24.32
2023-10-02T14:33:25.112Z,23.74
2023-10-02T14:37:27.992Z,23.17
2023-10-02T14:41:30.801Z,23.48
2023-10-02T14:45:35.448Z,23.71
2023-10-02T14:49:39.823Z,23.23
2023-10-02T14:53:42.633Z,22.71
2023-10-02T14:57:46.942Z,22.55
2023-10-02T15:01:51.200Z,22.88
2023-10-02T15:05:55.563Z,23.21
2023-10-02T15:09:58.415Z,22.82
2023-10-02T15:14:01.311Z,22.54
2023-10-02T15:18:09.292Z,22.57
2023-10-02T15:22:14.809Z,22.83
2023-10-02T15:26:18.624Z,22.29
2023-10-02T15:30:24.138Z,22.12
2023-10-02T15:34:27.024Z,22.02
2023-10-02T15:38:32.432Z,22.10
2023-10-02T15:42:36.704Z,21.61
2023-10-02T15:46:39.527Z,21.18
2023-10-02T15:50:42.235Z,21.22
2023-10-02T15:54:46.175Z,21.06
2023-10-02T15:58:48.901Z,20.53
2023-10-02T16:02:52.794Z,20.42
2023-10-02T16:07:03.877Z,20.25
2023-10-02T16:11:08.998Z,20.15
2023-10-02T16:15:14.158Z,19.91
2023-10-02T16:19:16.992Z,19.52
2023-10-02T16:23:20.063Z,19.40
2023-10-02T16:27:24.241Z,18.93
2023-10-02T16:31:27.071Z,18.89
2023-10-02T16:35:32.296Z,18.58
2023-10-02T16:39:36.383Z,18.34
2023-10-02T16:43:40.475Z,18.06
2023-10-02T16:47:44.065Z,17.85
2023-10-02T16:51:46.804Z,17.74
2023-10-02T16:55:55.835Z,17.40
2023-10-02T17:00:00.460Z,17.75
2023-10-02T17:04:03.265Z,17.51
2023-10-02T17:08:06.425Z,17.64
2023-10-02T17:12:09.290Z,17.21
2023-10-02T17:16:13.453Z,16.95
2023-10-02T17:20:18.564Z,16.57
2023-10-02T17:24:21.720Z,16.17
2023-10-02T17:28:29.245Z,16.05
2023-10-02T17:32:33.654Z,16.36
2023-10-02T17:36:36.639Z,16.26
2023-10-02T17:40:40.240Z,16.27
2023-10-02T17:44:43.105Z,15.49
2023-10-02T17:48:48.015Z,15.76
2023-10-02T17:52:51.164Z,15.90
2023-10-02T17:56:54.129Z,15.36
2023-10-02T18:01:03.412Z,15.94
2023-10-02T18:05:10.978Z,15.54
2023-10-02T18:09:13.962Z,14.90
2023-10-02T18:13:17.118Z,15.33
2023-10-02T18:17:20.120Z,15.70
2023-10-02T18:21:24.283Z,15.28
2023-10-02T18:25:27.243Z,14.83
2023-10-02T18:29:30.239Z,14.64
2023-10-02T18:33:33.560Z,14.94
2023-10-02T18:37:39.415Z,14.20
2023-10-02T18:41:42.361Z,14.80
2023-10-02T18:45:45.533Z,14.61
2023-10-02T18:49:49.452Z,14.52
2023-10-02T18:53:57.141Z,14.28
2023-10-02T18:57:59.885Z,13.73
2023-10-02T19:02:02.902Z,14.16
2023-10-02T19:06:05.892Z,14.29
2023-10-02T19:10:11.230Z,13.71
2023-10-02T19:14:14.512Z,13.35
2023-10-02T19:18:17.261Z,13.77
2023-10-02T19:22:20.155Z,13.44
2023-10-02T19:26:24.792Z,13.71
2023-10-02T19:30:28.807Z,13.53
2023-10-02T19:34:31.860Z,13.51
2023-10-02T19:38:36.451Z,13.48
2023-10-02T19:42:40.634Z,13.86
2023-10-02T19:46:43.428Z,13.15
2023-10-02T19:50:46.654Z,13.47
2023-10-02T19:54:49.726Z,13.43
2023-10-02T19:58:53.809Z,13.13
2023-10-02T20:02:57.990Z,13.10
2023-10-02T20:07:01.458Z,12.81
2023-10-02T20:11:05.389Z,12.96
2023-10-02T20:15:11.273Z,12.85
2023-10-02T20:19:18.432Z,12.85
2023-10-02T20:23:21.258Z,12.44
2023-10-02T20:27:24.359Z,12.96
2023-10-02T20:31:29.082Z,12.87
2023-10-02T20:35:36.851Z,12.88
2023-10-02T20:39:39.624Z,12.44
2023-10-02T20:43:42.332Z,12.60
2023-10-02T20:47:46.451Z,12.67
2023-10-02T20:51:50.427Z,12.76
2023-10-02T20:55:54.766Z,12.31
2023-10-02T20:59:58.433Z,12.23
2023-10-02T21:04:02.838Z,12.43
2023-10-02T21:08:07.476Z,12.10
2023-10-02T21:12:11.669Z,12.05
2023-10-02T21:16:16.496Z,12.05
2023-10-02T21:20:20.777Z,12.52
2023-10-02T21:24:23.682Z,12.35
2023-10-02T21:28:26.533Z,11.95
2023-10-02T21:32:30.534Z,11.97
2023-10-02T21:36:39.674Z,11.95
2023-10-02T21:40:42.484Z,11.86
2023-10-02T21:44:45.234Z,11.88
2023-10-02T21:48:48.976Z,11.99
2023-10-02T21:52:53.043Z,11.81
2023-10-02T21:56:55.802Z,11.70
2023-10-02T22:01:03.049Z,12.02
2023-10-02T22:05:06.864Z,11.58
2023-10-02T22:09:12.913Z,11.50
2023-10-02T22:13:15.950Z,11.67
2023-10-02T22:17:21.925Z,11.76
2023-10-02T22:21:27.083Z,11.23
2023-10-02T22:25:31.838Z,11.52
2023-10-02T22:29:34.520Z,11.47
2023-10-02T22:33:39.114Z,11.48
2023-10-02T22:37:42.556Z,11.20
2023-10-02T22:41:46.683Z,11.33
2023-10-02T22:45:49.430Z,11.47
2023-10-02T22:49:52.927Z,11.23
2023-10-02T22:53:55.663Z,11.45
2023-10-02T22:57:59.864Z,11.18
2023-10-02T23:02:05.187Z,11.45
2023-10-02T23:06:11.071Z,11.05
2023-10-02T23:10:16.625Z,11.20
2023-10-02T23:14:21.165Z,11.27
2023-10-02T23:18:26.267Z,11.08
2023-10-02T23:22:29.444Z,10.96
2023-10-02T23:26:32.187Z,10.97
2023-10-02T23:30:37.912Z,10.87
2023-10-02T23:34:42.121Z,11.32
2023-10-02T23:38:45.034Z,10.95
2023-10-02T23:42:48.818Z,10.91
2023-10-02T23:46:54.795Z,10.73
2023-10-02T23:50:58.493Z,10.85
2023-10-02T23:55:01.405Z,10.77
2023-10-02T23:59:05.034Z,10.82
